sensor_id;sensor_type;location;lat;lon;timestamp;pressure;altitude;pressure_sealevel;temperature;humidity
25232;BME280;13176;51.140;6.290;2023-02-04T00:00:20;102480.03;;;11.48;76.83
25232;BME280;13176;51.140;6.290;2023-02-04T00:02:48;102504.66;;;11.62;76.82
25232;BME280;13176;51.140;6.290;2023-02-04T00:05:17;102484.44;;;11.51;76.82
25232;BME280;13176;51.140;6.290;2023-02-04T00:07:45;102499.00;;;11.31;77.68
25232;BME280;13176;51.140;6.290;2023-02-04T00:10:11;102385.13;;;10.74;77.85
25232;BME280;13176;51.140;6.290;2023-02-04T00:12:38;102486.66;;;11.20;78.14
25232;BME280;13176;51.140;6.290;2023-02-04T00:15:04;102514.88;;;11.47;77.93
25232;BME280;13176;51.140;6.290;2023-02-04T00:17:31;102483.25;;;11.24;78.11
25232;BME280;13176;51.140;6.290;2023-02-04T00:19:58;102477.16;;;11.23;78.19
25232;BME280;13176;51.140;6.290;2023-02-04T00:22:24;102499.78;;;11.21;78.87
25232;BME280;13176;51.140;6.290;2023-02-04T00:24:53;102481.56;;;11.29;77.91
25232;BME280;13176;51.140;6.290;2023-02-04T00:27:20;102462.81;;;10.94;78.58
25232;BME280;13176;51.140;6.290;2023-02-04T00:29:46;102514.75;;;11.37;78.24
25232;BME280;13176;51.140;6.290;2023-02-04T00:32:12;102487.78;;;11.38;78.12
25232;BME280;13176;51.140;6.290;2023-02-04T00:34:39;102482.47;;;11.32;77.77
25232;BME280;13176;51.140;6.290;2023-02-04T00:37:06;102484.19;;;11.30;77.58
25232;BME280;13176;51.140;6.290;2023-02-04T00:39:32;102465.44;;;10.94;78.29
25232;BME280;13176;51.140;6.290;2023-02-04T00:41:59;102474.53;;;11.25;77.24
25232;BME280;13176;51.140;6.290;2023-02-04T00:44:26;102497.91;;;11.11;78.15
25232;BME280;13176;51.140;6.290;2023-02-04T00:46:52;102506.75;;;11.22;78.13
25232;BME280;13176;51.140;6.290;2023-02-04T00:49:18;102526.00;;;11.27;78.46
25232;BME280;13176;51.140;6.290;2023-02-04T00:51:45;102478.56;;;10.99;77.94
25232;BME280;13176;51.140;6.290;2023-02-04T00:54:12;102412.13;;;10.77;77.25
25232;BME280;13176;51.140;6.290;2023-02-04T00:56:42;102494.50;;;11.18;77.79
25232;BME280;13176;51.140;6.290;2023-02-04T00:59:08;102426.09;;;10.79;77.12
25232;BME280;13176;51.140;6.290;2023-02-04T01:01:35;102472.53;;;11.04;77.91
25232;BME280;13176;51.140;6.290;2023-02-04T01:04:02;102505.03;;;11.24;77.55
25232;BME280;13176;51.140;6.290;2023-02-04T01:06:29;102484.13;;;11.24;76.90
25232;BME280;13176;51.140;6.290;2023-02-04T01:08:55;102439.31;;;10.91;76.49
25232;BME280;13176;51.140;6.290;2023-02-04T01:11:21;102545.53;;;11.56;76.63
25232;BME280;13176;51.140;6.290;2023-02-04T01:13:48;102517.13;;;11.16;77.35
25232;BME280;13176;51.140;6.290;2023-02-04T01:16:14;102550.38;;;11.26;77.41
25232;BME280;13176;51.140;6.290;2023-02-04T01:18:41;102534.72;;;11.32;76.71
25232;BME280;13176;51.140;6.290;2023-02-04T01:21:07;102448.84;;;10.89;76.85
25232;BME280;13176;51.140;6.290;2023-02-04T01:23:33;102550.50;;;11.36;76.78
25232;BME280;13176;51.140;6.290;2023-02-04T01:26:00;102461.78;;;10.80;76.81
25232;BME280;13176;51.140;6.290;2023-02-04T01:28:26;102530.19;;;11.16;76.78
25232;BME280;13176;51.140;6.290;2023-02-04T01:30:53;102560.81;;;11.29;76.84
25232;BME280;13176;51.140;6.290;2023-02-04T01:33:19;102478.47;;;10.91;76.51
25232;BME280;13176;51.140;6.290;2023-02-04T01:35:46;102550.47;;;11.35;76.86
25232;BME280;13176;51.140;6.290;2023-02-04T01:38:12;102508.34;;;11.13;76.97
25232;BME280;13176;51.140;6.290;2023-02-04T01:40:40;102548.66;;;11.31;76.58
25232;BME280;13176;51.140;6.290;2023-02-04T01:43:07;102560.91;;;11.35;76.95
25232;BME280;13176;51.140;6.290;2023-02-04T01:45:34;102559.19;;;11.37;77.15
25232;BME280;13176;51.140;6.290;2023-02-04T01:48:05;102567.88;;;11.34;77.77
25232;BME280;13176;51.140;6.290;2023-02-04T01:50:33;102417.00;;;10.50;77.38
25232;BME280;13176;51.140;6.290;2023-02-04T01:53:00;102363.00;;;9.90;78.58
25232;BME280;13176;51.140;6.290;2023-02-04T01:55:29;102541.41;;;11.09;78.44
25232;BME280;13176;51.140;6.290;2023-02-04T01:57:56;102533.66;;;11.15;77.59
25232;BME280;13176;51.140;6.290;2023-02-04T02:00:29;102573.88;;;11.26;77.82
25232;BME280;13176;51.140;6.290;2023-02-04T02:02:58;102585.16;;;11.22;78.96
25232;BME280;13176;51.140;6.290;2023-02-04T02:05:30;102564.06;;;11.10;78.86
25232;BME280;13176;51.140;6.290;2023-02-04T02:07:59;102544.59;;;10.87;80.05
25232;BME280;13176;51.140;6.290;2023-02-04T02:10:27;102563.09;;;11.04;79.82
25232;BME280;13176;51.140;6.290;2023-02-04T02:12:55;102541.84;;;10.80;80.21
25232;BME280;13176;51.140;6.290;2023-02-04T02:15:22;102588.53;;;11.15;79.57
25232;BME280;13176;51.140;6.290;2023-02-04T02:17:51;102580.59;;;11.11;79.83
25232;BME280;13176;51.140;6.290;2023-02-04T02:20:20;102569.16;;;11.01;80.25
25232;BME280;13176;51.140;6.290;2023-02-04T02:23:41;102596.38;;;11.15;80.54
25232;BME280;13176;51.140;6.290;2023-02-04T02:26:12;102587.31;;;10.92;81.04
25232;BME280;13176;51.140;6.290;2023-02-04T02:28:39;102491.63;;;10.39;80.79
25232;BME280;13176;51.140;6.290;2023-02-04T02:31:05;102602.25;;;11.02;81.08
25232;BME280;13176;51.140;6.290;2023-02-04T02:33:32;102574.13;;;10.83;80.53
25232;BME280;13176;51.140;6.290;2023-02-04T02:35:59;102508.03;;;10.32;81.27
25232;BME280;13176;51.140;6.290;2023-02-04T02:38:26;102505.50;;;10.37;81.34
25232;BME280;13176;51.140;6.290;2023-02-04T02:40:52;102538.69;;;10.45;81.53
25232;BME280;13176;51.140;6.290;2023-02-04T02:43:22;102621.13;;;10.83;82.29
25232;BME280;13176;51.140;6.290;2023-02-04T02:45:49;102574.59;;;10.61;82.14
25232;BME280;13176;51.140;6.290;2023-02-04T02:48:16;102623.91;;;10.94;82.17
25232;BME280;13176;51.140;6.290;2023-02-04T02:50:43;102509.78;;;10.32;81.84
25232;BME280;13176;51.140;6.290;2023-02-04T02:53:12;102632.72;;;11.02;81.78
25232;BME280;13176;51.140;6.290;2023-02-04T02:55:39;102607.22;;;10.84;81.38
25232;BME280;13176;51.140;6.290;2023-02-04T02:58:13;102561.50;;;10.58;82.07
25232;BME280;13176;51.140;6.290;2023-02-04T03:00:40;102560.38;;;10.41;82.65
25232;BME280;13176;51.140;6.290;2023-02-04T03:03:13;102545.56;;;10.40;82.57
25232;BME280;13176;51.140;6.290;2023-02-04T03:05:45;102603.53;;;10.73;82.53
25232;BME280;13176;51.140;6.290;2023-02-04T03:08:14;102524.28;;;10.17;83.02
25232;BME280;13176;51.140;6.290;2023-02-04T03:10:42;102569.16;;;10.48;82.53
25232;BME280;13176;51.140;6.290;2023-02-04T03:13:11;102562.97;;;10.41;82.37
25232;BME280;13176;51.140;6.290;2023-02-04T03:15:39;102614.00;;;10.75;82.33
25232;BME280;13176;51.140;6.290;2023-02-04T03:18:06;102590.78;;;10.39;82.46
25232;BME280;13176;51.140;6.290;2023-02-04T03:20:33;102606.84;;;10.63;82.77
25232;BME280;13176;51.140;6.290;2023-02-04T03:23:00;102612.06;;;10.63;82.46
25232;BME280;13176;51.140;6.290;2023-02-04T03:25:27;102611.94;;;10.57;82.71
25232;BME280;13176;51.140;6.290;2023-02-04T03:27:56;102643.44;;;10.66;83.25
25232;BME280;13176;51.140;6.290;2023-02-04T03:30:24;102639.91;;;10.63;83.32
25232;BME280;13176;51.140;6.290;2023-02-04T03:32:51;102515.06;;;9.91;83.42
25232;BME280;13176;51.140;6.290;2023-02-04T03:35:18;102638.22;;;10.65;82.87
25232;BME280;13176;51.140;6.290;2023-02-04T03:37:45;102655.59;;;10.64;83.39
25232;BME280;13176;51.140;6.290;2023-02-04T03:40:11;102622.09;;;10.39;83.27
25232;BME280;13176;51.140;6.290;2023-02-04T03:42:38;102629.06;;;10.40;83.06
25232;BME280;13176;51.140;6.290;2023-02-04T03:45:05;102623.78;;;10.37;83.35
25232;BME280;13176;51.140;6.290;2023-02-04T03:47:31;102634.16;;;10.33;83.72
25232;BME280;13176;51.140;6.290;2023-02-04T03:49:58;102622.88;;;10.35;83.08
25232;BME280;13176;51.140;6.290;2023-02-04T03:52:24;102654.31;;;10.43;83.42
25232;BME280;13176;51.140;6.290;2023-02-04T03:54:50;102650.91;;;10.47;82.87
25232;BME280;13176;51.140;6.290;2023-02-04T03:57:17;102590.22;;;10.10;83.66
25232;BME280;13176;51.140;6.290;2023-02-04T03:59:43;102627.13;;;10.30;83.02
25232;BME280;13176;51.140;6.290;2023-02-04T04:02:09;102649.22;;;10.49;83.22
25232;BME280;13176;51.140;6.290;2023-02-04T04:04:36;102614.94;;;10.29;82.92
25232;BME280;13176;51.140;6.290;2023-02-04T04:07:02;102650.13;;;10.49;83.18
25232;BME280;13176;51.140;6.290;2023-02-04T04:09:29;102650.97;;;10.50;83.06
25232;BME280;13176;51.140;6.290;2023-02-04T04:11:55;102615.78;;;10.28;82.92
25232;BME280;13176;51.140;6.290;2023-02-04T04:14:21;102599.03;;;10.15;82.98
25232;BME280;13176;51.140;6.290;2023-02-04T04:16:48;102646.56;;;10.46;82.58
25232;BME280;13176;51.140;6.290;2023-02-04T04:19:14;102537.47;;;9.80;83.37
25232;BME280;13176;51.140;6.290;2023-02-04T04:21:40;102637.69;;;10.36;83.56
25232;BME280;13176;51.140;6.290;2023-02-04T04:24:07;102586.59;;;10.02;83.15
25232;BME280;13176;51.140;6.290;2023-02-04T04:26:33;102641.25;;;10.41;83.13
25232;BME280;13176;51.140;6.290;2023-02-04T04:29:00;102549.69;;;9.84;83.08
25232;BME280;13176;51.140;6.290;2023-02-04T04:31:26;102604.13;;;10.09;83.37
25232;BME280;13176;51.140;6.290;2023-02-04T04:33:52;102664.69;;;10.40;83.42
25232;BME280;13176;51.140;6.290;2023-02-04T04:36:19;102675.91;;;10.34;83.86
25232;BME280;13176;51.140;6.290;2023-02-04T04:38:45;102577.59;;;9.88;83.61
25232;BME280;13176;51.140;6.290;2023-02-04T04:41:11;102646.03;;;10.18;83.88
25232;BME280;13176;51.140;6.290;2023-02-04T04:43:38;102674.22;;;10.36;84.21
25232;BME280;13176;51.140;6.290;2023-02-04T04:46:04;102668.22;;;10.40;83.60
25232;BME280;13176;51.140;6.290;2023-02-04T04:48:31;102659.72;;;10.50;83.29
25232;BME280;13176;51.140;6.290;2023-02-04T04:50:57;102679.69;;;10.48;83.17
25232;BME280;13176;51.140;6.290;2023-02-04T04:53:24;102659.66;;;10.47;83.19
25232;BME280;13176;51.140;6.290;2023-02-04T04:55:50;102548.00;;;9.86;83.02
25232;BME280;13176;51.140;6.290;2023-02-04T04:58:16;102585.81;;;10.07;82.87
25232;BME280;13176;51.140;6.290;2023-02-04T05:00:43;102688.72;;;10.68;83.00
25232;BME280;13176;51.140;6.290;2023-02-04T05:03:09;102563.69;;;9.89;83.39
25232;BME280;13176;51.140;6.290;2023-02-04T05:05:36;102593.34;;;9.94;83.65
25232;BME280;13176;51.140;6.290;2023-02-04T05:08:06;102692.88;;;10.57;83.34
25232;BME280;13176;51.140;6.290;2023-02-04T05:10:39;102596.19;;;10.03;83.54
25232;BME280;13176;51.140;6.290;2023-02-04T05:13:05;102672.66;;;10.46;83.31
25232;BME280;13176;51.140;6.290;2023-02-04T05:15:32;102606.53;;;10.00;83.74
25232;BME280;13176;51.140;6.290;2023-02-04T05:17:58;102670.75;;;10.36;83.71
25232;BME280;13176;51.140;6.290;2023-02-04T05:20:25;102607.34;;;9.97;83.95
25232;BME280;13176;51.140;6.290;2023-02-04T05:22:51;102593.56;;;10.03;83.65
25232;BME280;13176;51.140;6.290;2023-02-04T05:25:18;102609.22;;;10.03;84.23
25232;BME280;13176;51.140;6.290;2023-02-04T05:27:44;102647.03;;;10.24;83.96
25232;BME280;13176;51.140;6.290;2023-02-04T05:30:12;102623.28;;;10.11;84.11
25232;BME280;13176;51.140;6.290;2023-02-04T05:32:39;102612.56;;;9.99;83.80
25232;BME280;13176;51.140;6.290;2023-02-04T05:35:06;102707.66;;;10.55;84.07
25232;BME280;13176;51.140;6.290;2023-02-04T05:37:33;102619.84;;;10.12;83.96
25232;BME280;13176;51.140;6.290;2023-02-04T05:39:59;102621.41;;;10.04;84.43
25232;BME280;13176;51.140;6.290;2023-02-04T05:42:26;102698.75;;;10.44;83.98
25232;BME280;13176;51.140;6.290;2023-02-04T05:44:52;102664.38;;;10.22;84.01
25232;BME280;13176;51.140;6.290;2023-02-04T05:47:18;102720.66;;;10.52;84.12
25232;BME280;13176;51.140;6.290;2023-02-04T05:49:45;102691.69;;;10.40;83.97
25232;BME280;13176;51.140;6.290;2023-02-04T05:52:12;102621.06;;;9.89;84.27
25232;BME280;13176;51.140;6.290;2023-02-04T05:54:38;102685.38;;;10.28;84.11
25232;BME280;13176;51.140;6.290;2023-02-04T05:57:05;102618.22;;;9.77;84.29
25232;BME280;13176;51.140;6.290;2023-02-04T05:59:32;102633.13;;;9.84;84.55
25232;BME280;13176;51.140;6.290;2023-02-04T06:01:58;102589.16;;;9.59;84.37
25232;BME280;13176;51.140;6.290;2023-02-04T06:04:24;102729.94;;;10.38;84.72
25232;BME280;13176;51.140;6.290;2023-02-04T06:06:51;102737.81;;;10.41;84.56
25232;BME280;13176;51.140;6.290;2023-02-04T06:09:17;102686.88;;;10.16;84.83
25232;BME280;13176;51.140;6.290;2023-02-04T06:11:44;102613.66;;;9.67;84.79
25232;BME280;13176;51.140;6.290;2023-02-04T06:14:10;102749.16;;;10.43;84.69
25232;BME280;13176;51.140;6.290;2023-02-04T06:16:36;102696.47;;;10.18;84.96
25232;BME280;13176;51.140;6.290;2023-02-04T06:19:03;102654.09;;;9.90;84.83
25232;BME280;13176;51.140;6.290;2023-02-04T06:21:29;102686.66;;;10.07;84.78
25232;BME280;13176;51.140;6.290;2023-02-04T06:23:56;102763.19;;;10.48;84.83
25232;BME280;13176;51.140;6.290;2023-02-04T06:26:23;102742.06;;;10.36;84.54
25232;BME280;13176;51.140;6.290;2023-02-04T06:28:49;102747.22;;;10.33;84.71
25232;BME280;13176;51.140;6.290;2023-02-04T06:31:16;102659.16;;;9.81;84.69
25232;BME280;13176;51.140;6.290;2023-02-04T06:33:42;102633.63;;;9.66;84.58
25232;BME280;13176;51.140;6.290;2023-02-04T06:36:09;102775.47;;;10.52;84.62
25232;BME280;13176;51.140;6.290;2023-02-04T06:38:35;102682.00;;;9.94;85.32
25232;BME280;13176;51.140;6.290;2023-02-04T06:41:01;102674.91;;;9.87;85.09
25232;BME280;13176;51.140;6.290;2023-02-04T06:43:28;102763.91;;;10.41;85.00
25232;BME280;13176;51.140;6.290;2023-02-04T06:45:54;102694.44;;;10.04;84.86
25232;BME280;13176;51.140;6.290;2023-02-04T06:48:21;102775.47;;;10.52;84.67
25232;BME280;13176;51.140;6.290;2023-02-04T06:50:47;102773.50;;;10.42;84.98
25232;BME280;13176;51.140;6.290;2023-02-04T06:53:13;102700.50;;;10.04;85.20
25232;BME280;13176;51.140;6.290;2023-02-04T06:55:40;102755.91;;;10.32;85.42
25232;BME280;13176;51.140;6.290;2023-02-04T06:58:06;102759.41;;;10.33;85.52
25232;BME280;13176;51.140;6.290;2023-02-04T07:00:32;102767.31;;;10.39;85.58
25232;BME280;13176;51.140;6.290;2023-02-04T07:02:59;102773.31;;;10.33;85.56
25232;BME280;13176;51.140;6.290;2023-02-04T07:05:26;102767.97;;;10.27;85.89
25232;BME280;13176;51.140;6.290;2023-02-04T07:07:52;102768.72;;;10.22;85.75
25232;BME280;13176;51.140;6.290;2023-02-04T07:10:18;102805.75;;;10.46;85.79
25232;BME280;13176;51.140;6.290;2023-02-04T07:12:48;102799.34;;;10.30;86.46
25232;BME280;13176;51.140;6.290;2023-02-04T07:15:14;102778.41;;;10.27;85.67
25232;BME280;13176;51.140;6.290;2023-02-04T07:17:41;102698.84;;;9.68;86.96
25232;BME280;13176;51.140;6.290;2023-02-04T07:20:08;102788.06;;;10.31;85.95
25232;BME280;13176;51.140;6.290;2023-02-04T07:22:35;102746.59;;;10.04;86.00
25232;BME280;13176;51.140;6.290;2023-02-04T07:25:02;102769.50;;;10.17;85.84
25232;BME280;13176;51.140;6.290;2023-02-04T07:27:29;102792.47;;;10.34;85.84
25232;BME280;13176;51.140;6.290;2023-02-04T07:29:55;102691.78;;;9.62;86.38
25232;BME280;13176;51.140;6.290;2023-02-04T07:32:22;102692.63;;;9.63;86.14
25232;BME280;13176;51.140;6.290;2023-02-04T07:34:48;102705.59;;;9.60;86.54
25232;BME280;13176;51.140;6.290;2023-02-04T07:37:14;102781.41;;;10.06;86.53
25232;BME280;13176;51.140;6.290;2023-02-04T07:39:41;102744.66;;;9.97;86.19
25232;BME280;13176;51.140;6.290;2023-02-04T07:42:07;102815.00;;;10.30;86.78
25232;BME280;13176;51.140;6.290;2023-02-04T07:44:34;102725.19;;;9.80;86.41
25232;BME280;13176;51.140;6.290;2023-02-04T07:47:00;102822.69;;;10.24;87.26
25232;BME280;13176;51.140;6.290;2023-02-04T07:49:27;102829.09;;;10.38;86.80
25232;BME280;13176;51.140;6.290;2023-02-04T07:51:54;102808.63;;;10.17;87.10
25232;BME280;13176;51.140;6.290;2023-02-04T07:54:20;102839.31;;;10.29;87.48
25232;BME280;13176;51.140;6.290;2023-02-04T07:56:48;102859.63;;;10.42;87.87
25232;BME280;13176;51.140;6.290;2023-02-04T07:59:14;102786.53;;;10.01;87.06
25232;BME280;13176;51.140;6.290;2023-02-04T08:01:41;102834.78;;;10.20;88.13
25232;BME280;13176;51.140;6.290;2023-02-04T08:04:07;102766.28;;;9.91;87.87
25232;BME280;13176;51.140;6.290;2023-02-04T08:06:33;102728.50;;;9.73;87.75
25232;BME280;13176;51.140;6.290;2023-02-04T08:09:00;102849.31;;;10.48;87.67
25232;BME280;13176;51.140;6.290;2023-02-04T08:11:29;102787.75;;;10.17;87.46
25232;BME280;13176;51.140;6.290;2023-02-04T08:14:17;102684.75;;;9.60;87.07
25232;BME280;13176;51.140;6.290;2023-02-04T08:16:43;102720.03;;;9.83;86.92
25232;BME280;13176;51.140;6.290;2023-02-04T08:19:09;102847.59;;;10.49;87.75
25232;BME280;13176;51.140;6.290;2023-02-04T08:21:36;102635.41;;;9.29;87.16
25232;BME280;13176;51.140;6.290;2023-02-04T08:24:02;102677.97;;;9.68;86.69
25232;BME280;13176;51.140;6.290;2023-02-04T08:26:29;102786.78;;;10.12;87.56
25232;BME280;13176;51.140;6.290;2023-02-04T08:28:55;102865.13;;;10.54;88.31
25232;BME280;13176;51.140;6.290;2023-02-04T08:31:22;102851.72;;;10.39;88.42
25232;BME280;13176;51.140;6.290;2023-02-04T08:33:48;102772.88;;;10.13;87.69
25232;BME280;13176;51.140;6.290;2023-02-04T08:36:15;102827.66;;;10.52;87.35
25232;BME280;13176;51.140;6.290;2023-02-04T08:38:41;102775.66;;;9.85;88.20
25232;BME280;13176;51.140;6.290;2023-02-04T08:41:10;102844.88;;;10.44;87.87
25232;BME280;13176;51.140;6.290;2023-02-04T08:43:36;102883.75;;;10.72;87.20
25232;BME280;13176;51.140;6.290;2023-02-04T08:46:04;102877.13;;;10.48;88.64
25232;BME280;13176;51.140;6.290;2023-02-04T08:48:30;102884.69;;;10.74;87.87
25232;BME280;13176;51.140;6.290;2023-02-04T08:50:57;102809.00;;;10.34;87.11
25232;BME280;13176;51.140;6.290;2023-02-04T08:53:23;102865.19;;;11.00;86.15
25232;BME280;13176;51.140;6.290;2023-02-04T08:55:49;102875.81;;;11.09;86.15
25232;BME280;13176;51.140;6.290;2023-02-04T08:58:16;102897.94;;;11.26;85.01
25232;BME280;13176;51.140;6.290;2023-02-04T09:00:42;102891.06;;;11.32;84.43
25232;BME280;13176;51.140;6.290;2023-02-04T09:03:08;102893.09;;;11.48;84.23
25232;BME280;13176;51.140;6.290;2023-02-04T09:05:38;102894.47;;;11.29;83.78
25232;BME280;13176;51.140;6.290;2023-02-04T09:08:05;102884.22;;;11.37;83.17
25232;BME280;13176;51.140;6.290;2023-02-04T09:10:31;102899.00;;;11.37;83.12
25232;BME280;13176;51.140;6.290;2023-02-04T09:12:58;102875.41;;;11.34;82.84
25232;BME280;13176;51.140;6.290;2023-02-04T09:15:24;102903.94;;;11.68;82.78
25232;BME280;13176;51.140;6.290;2023-02-04T09:17:51;102873.28;;;11.58;81.55
25232;BME280;13176;51.140;6.290;2023-02-04T09:20:29;102913.59;;;11.72;81.78
25232;BME280;13176;51.140;6.290;2023-02-04T09:22:56;102779.81;;;10.99;81.53
25232;BME280;13176;51.140;6.290;2023-02-04T09:25:22;102811.22;;;11.02;81.89
25232;BME280;13176;51.140;6.290;2023-02-04T09:27:49;102861.00;;;11.54;81.38
25232;BME280;13176;51.140;6.290;2023-02-04T09:30:15;102898.75;;;11.69;80.60
25232;BME280;13176;51.140;6.290;2023-02-04T09:32:42;102850.34;;;11.45;79.91
25232;BME280;13176;51.140;6.290;2023-02-04T09:35:08;102924.50;;;11.96;79.87
25232;BME280;13176;51.140;6.290;2023-02-04T09:37:35;102816.16;;;11.33;79.79
25232;BME280;13176;51.140;6.290;2023-02-04T09:40:01;102780.13;;;11.14;79.39
25232;BME280;13176;51.140;6.290;2023-02-04T09:42:28;102904.63;;;11.56;79.84
25232;BME280;13176;51.140;6.290;2023-02-04T09:44:54;102829.25;;;11.36;79.67
25232;BME280;13176;51.140;6.290;2023-02-04T09:47:22;102827.78;;;11.50;78.74
25232;BME280;13176;51.140;6.290;2023-02-04T09:49:50;102861.34;;;11.75;78.39
25232;BME280;13176;51.140;6.290;2023-02-04T09:52:17;102859.75;;;11.84;78.71
25232;BME280;13176;51.140;6.290;2023-02-04T09:54:43;102853.66;;;11.85;78.08
25232;BME280;13176;51.140;6.290;2023-02-04T09:57:18;102935.53;;;12.32;77.68
25232;BME280;13176;51.140;6.290;2023-02-04T09:59:45;102801.72;;;11.54;77.71
25232;BME280;13176;51.140;6.290;2023-02-04T10:02:19;102823.81;;;11.71;77.52
25232;BME280;13176;51.140;6.290;2023-02-04T10:04:47;102891.81;;;12.25;77.08
25232;BME280;13176;51.140;6.290;2023-02-04T10:07:16;102949.00;;;12.57;76.85
25232;BME280;13176;51.140;6.290;2023-02-04T10:09:47;102844.56;;;12.16;76.10
25232;BME280;13176;51.140;6.290;2023-02-04T10:12:15;102895.47;;;12.39;75.30
25232;BME280;13176;51.140;6.290;2023-02-04T10:14:42;102858.81;;;12.36;74.65
25232;BME280;13176;51.140;6.290;2023-02-04T10:17:09;102855.34;;;12.40;75.15
25232;BME280;13176;51.140;6.290;2023-02-04T10:19:36;102857.09;;;12.38;74.74
25232;BME280;13176;51.140;6.290;2023-02-04T10:22:14;102849.97;;;12.28;74.38
25232;BME280;13176;51.140;6.290;2023-02-04T10:24:42;102944.38;;;12.99;74.44
25232;BME280;13176;51.140;6.290;2023-02-04T10:27:10;102891.25;;;12.47;74.10
25232;BME280;13176;51.140;6.290;2023-02-04T10:29:37;102852.72;;;12.37;73.53
25232;BME280;13176;51.140;6.290;2023-02-04T10:32:05;102865.00;;;12.44;72.72
25232;BME280;13176;51.140;6.290;2023-02-04T10:34:42;102925.94;;;12.91;72.65
25232;BME280;13176;51.140;6.290;2023-02-04T10:37:19;102942.66;;;12.99;72.91
25232;BME280;13176;51.140;6.290;2023-02-04T10:39:47;102849.47;;;12.55;72.21
25232;BME280;13176;51.140;6.290;2023-02-04T10:42:26;102938.72;;;13.37;72.34
25232;BME280;13176;51.140;6.290;2023-02-04T10:44:53;102930.84;;;13.34;71.30
25232;BME280;13176;51.140;6.290;2023-02-04T10:47:22;102829.56;;;12.69;70.93
25232;BME280;13176;51.140;6.290;2023-02-04T10:52:33;102887.78;;;13.17;70.61
25232;BME280;13176;51.140;6.290;2023-02-04T10:55:02;102947.81;;;13.69;69.75
25232;BME280;13176;51.140;6.290;2023-02-04T10:57:30;102900.63;;;13.75;67.67
25232;BME280;13176;51.140;6.290;2023-02-04T11:00:00;102815.38;;;13.28;67.23
25232;BME280;13176;51.140;6.290;2023-02-04T11:02:47;102916.44;;;13.84;66.98
25232;BME280;13176;51.140;6.290;2023-02-04T11:05:19;102941.09;;;14.01;66.32
25232;BME280;13176;51.140;6.290;2023-02-04T11:07:47;102933.22;;;14.01;66.36
25232;BME280;13176;51.140;6.290;2023-02-04T11:10:20;102855.81;;;13.50;65.85
25232;BME280;13176;51.140;6.290;2023-02-04T11:18:03;102947.97;;;13.87;66.73
25232;BME280;13176;51.140;6.290;2023-02-04T11:20:32;102912.06;;;13.80;65.48
25232;BME280;13176;51.140;6.290;2023-02-04T11:26:30;102945.47;;;13.97;65.84
25232;BME280;13176;51.140;6.290;2023-02-04T11:37:02;102941.28;;;14.22;63.99
25232;BME280;13176;51.140;6.290;2023-02-04T11:39:39;102913.28;;;14.21;63.93
25232;BME280;13176;51.140;6.290;2023-02-04T11:42:20;102930.13;;;14.50;64.24
25232;BME280;13176;51.140;6.290;2023-02-04T11:44:52;102938.94;;;14.59;62.49
25232;BME280;13176;51.140;6.290;2023-02-04T11:47:21;102904.84;;;14.76;62.75
25232;BME280;13176;51.140;6.290;2023-02-04T11:49:54;102943.63;;;15.18;60.97
25232;BME280;13176;51.140;6.290;2023-02-04T11:52:21;102920.91;;;15.41;59.59
25232;BME280;13176;51.140;6.290;2023-02-04T11:54:57;102931.50;;;15.62;59.89
25232;BME280;13176;51.140;6.290;2023-02-04T11:57:25;102949.06;;;15.87;57.63
25232;BME280;13176;51.140;6.290;2023-02-04T11:59:53;102949.94;;;15.89;57.20
25232;BME280;13176;51.140;6.290;2023-02-04T12:02:22;102925.34;;;15.60;56.53
25232;BME280;13176;51.140;6.290;2023-02-04T12:05:11;102931.41;;;15.35;57.82
25232;BME280;13176;51.140;6.290;2023-02-04T12:07:38;102899.66;;;14.93;58.35
25232;BME280;13176;51.140;6.290;2023-02-04T12:10:21;102957.53;;;14.99;59.29
25232;BME280;13176;51.140;6.290;2023-02-04T12:12:53;102904.69;;;14.43;59.63
25232;BME280;13176;51.140;6.290;2023-02-04T12:15:34;102907.25;;;14.37;60.25
25232;BME280;13176;51.140;6.290;2023-02-04T12:18:02;102950.31;;;14.60;61.07
25232;BME280;13176;51.140;6.290;2023-02-04T12:20:29;102933.63;;;14.49;59.33
25232;BME280;13176;51.140;6.290;2023-02-04T12:22:56;102929.28;;;14.60;58.86
25232;BME280;13176;51.140;6.290;2023-02-04T12:25:22;102917.13;;;14.74;58.89
25232;BME280;13176;51.140;6.290;2023-02-04T12:27:49;102903.16;;;14.83;57.33
25232;BME280;13176;51.140;6.290;2023-02-04T12:30:17;102923.38;;;14.98;57.61
25232;BME280;13176;51.140;6.290;2023-02-04T12:32:45;102900.47;;;14.79;58.02
25232;BME280;13176;51.140;6.290;2023-02-04T12:35:12;102848.56;;;14.32;56.93
25232;BME280;13176;51.140;6.290;2023-02-04T12:37:39;102923.25;;;14.76;56.90
25232;BME280;13176;51.140;6.290;2023-02-04T12:40:07;102809.75;;;13.89;57.15
25232;BME280;13176;51.140;6.290;2023-02-04T12:42:35;102943.28;;;14.53;58.07
25232;BME280;13176;51.140;6.290;2023-02-04T12:45:01;102897.53;;;14.24;57.87
25232;BME280;13176;51.140;6.290;2023-02-04T12:47:28;102941.47;;;14.46;57.51
25232;BME280;13176;51.140;6.290;2023-02-04T12:49:54;102912.59;;;14.49;58.48
25232;BME280;13176;51.140;6.290;2023-02-04T12:52:20;102898.56;;;14.48;57.29
25232;BME280;13176;51.140;6.290;2023-02-04T12:54:47;102904.78;;;14.64;57.45
25232;BME280;13176;51.140;6.290;2023-02-04T12:57:13;102942.50;;;14.72;56.58
25232;BME280;13176;51.140;6.290;2023-02-04T12:59:45;102939.88;;;14.69;57.33
25232;BME280;13176;51.140;6.290;2023-02-04T13:02:12;102955.69;;;14.78;57.83
25232;BME280;13176;51.140;6.290;2023-02-04T13:04:38;102856.28;;;14.09;57.91
25232;BME280;13176;51.140;6.290;2023-02-04T13:07:08;102921.31;;;14.42;57.13
25232;BME280;13176;51.140;6.290;2023-02-04T13:09:35;102839.66;;;14.12;56.70
25232;BME280;13176;51.140;6.290;2023-02-04T13:12:02;102838.94;;;14.31;57.48